Hamilton, New Jersey
Current Conditions -  °F | °C
As of 5:53 PM on Wednesday 26 Nov 2014 (Local Time) from KTTN Reporting Station
Light Snow Light Snow  
Wind Chill: 26°   Ceiling: 800
Heat Index: 34°   Visibility: 4mi
Dew Point: 32°   Wind: 10mph
Humidity: 92%   Direction: 330°NNW
Pressure: 29.83"   Gusts: NA
Location:  40.1953°N, 74.7126°W
Report Text: KTTN 262253Z 33009KT 4SM -SN BR BKN008 OVC015 01/00 A2983 RMK AO2 UPB03E07SNE03B07 PRESRR SLP098 P0006 T00110000
Loading
Personal Weather Stations






























Interactive Weather Map New forecast layout! Learn more

10-Day Weather Forecast

Advertisements
Track Severe Weather on mobile